createdAt,value
2022-07-27T00:04:54.023Z,99.90
2022-07-27T00:09:59.318Z,99.90
2022-07-27T00:15:05.746Z,99.90
2022-07-27T00:20:11.723Z,99.90
2022-07-27T00:25:17.052Z,99.90
2022-07-27T00:30:22.461Z,99.90
2022-07-27T00:35:27.896Z,99.90
2022-07-27T00:40:33.432Z,99.90
2022-07-27T00:45:39.456Z,99.90
2022-07-27T00:50:47.282Z,99.90
2022-07-27T00:55:52.721Z,99.90
2022-07-27T01:00:58.819Z,99.90
2022-07-27T01:06:04.636Z,99.90
2022-07-27T01:11:10.315Z,99.90
2022-07-27T01:16:15.830Z,99.90
2022-07-27T01:21:21.689Z,99.90
2022-07-27T01:26:27.539Z,99.90
2022-07-27T01:31:33.303Z,99.90
2022-07-27T01:36:38.682Z,99.90
2022-07-27T01:41:44.627Z,99.90
2022-07-27T01:46:50.146Z,99.90
2022-07-27T01:51:57.327Z,99.90
2022-07-27T01:57:03.164Z,99.90
2022-07-27T02:02:08.630Z,99.90
2022-07-27T02:07:14.095Z,99.90
2022-07-27T02:12:37.869Z,99.90
2022-07-27T02:17:45.365Z,99.90
2022-07-27T02:22:51.754Z,99.90
2022-07-27T02:27:57.220Z,99.90
2022-07-27T02:33:09.096Z,99.90
2022-07-27T02:38:14.589Z,99.90
2022-07-27T02:43:19.934Z,99.90
2022-07-27T02:48:25.332Z,99.90
2022-07-27T02:53:32.256Z,99.90
2022-07-27T02:58:37.820Z,99.90
2022-07-27T03:03:43.178Z,99.90
2022-07-27T03:08:48.735Z,99.90
2022-07-27T03:13:54.183Z,99.90
2022-07-27T03:18:59.782Z,99.90
2022-07-27T03:24:05.304Z,99.90
2022-07-27T03:29:11.014Z,99.90
2022-07-27T03:34:18.032Z,99.90
2022-07-27T03:39:23.557Z,99.90
2022-07-27T03:44:28.982Z,99.90
2022-07-27T03:49:34.656Z,99.90
2022-07-27T03:54:40.948Z,99.90
2022-07-27T03:59:46.382Z,99.90
2022-07-27T04:04:52.261Z,99.90
2022-07-27T04:09:58.130Z,99.90
2022-07-27T04:15:05.054Z,99.90
2022-07-27T04:20:11.367Z,99.90
2022-07-27T04:25:17.134Z,99.90
2022-07-27T04:30:24.325Z,99.90
2022-07-27T04:35:29.831Z,99.90
2022-07-27T04:40:36.063Z,99.90
2022-07-27T04:45:41.453Z,99.90
2022-07-27T04:50:48.521Z,99.90
2022-07-27T04:55:54.254Z,99.90
2022-07-27T05:00:59.691Z,99.90
2022-07-27T05:06:05.087Z,99.90
2022-07-27T05:11:10.468Z,99.90
2022-07-27T05:16:15.935Z,99.90
2022-07-27T05:21:21.364Z,99.90
2022-07-27T05:26:26.790Z,99.90
2022-07-27T05:31:32.200Z,99.90
2022-07-27T05:36:37.619Z,99.90
2022-07-27T05:41:43.025Z,99.90
2022-07-27T05:46:48.356Z,99.90
2022-07-27T05:51:53.744Z,99.90
2022-07-27T05:56:59.165Z,99.90
2022-07-27T06:02:04.704Z,99.90
2022-07-27T06:07:27.540Z,99.90
2022-07-27T06:12:34.354Z,99.90
2022-07-27T06:17:40.552Z,99.90
2022-07-27T06:22:51.160Z,99.90
2022-07-27T06:27:56.480Z,99.90
2022-07-27T06:33:03.739Z,99.90
2022-07-27T06:38:10.057Z,99.90
2022-07-27T06:43:15.371Z,99.90
2022-07-27T06:48:21.582Z,99.90
2022-07-27T06:53:28.008Z,99.90
2022-07-27T06:58:37.813Z,99.90
2022-07-27T07:03:43.551Z,99.90
2022-07-27T07:08:49.038Z,99.90
2022-07-27T07:13:54.349Z,99.90
2022-07-27T07:18:59.734Z,99.90
2022-07-27T07:24:05.359Z,99.90
2022-07-27T07:29:10.842Z,99.90
2022-07-27T07:34:16.655Z,98.40
2022-07-27T07:39:22.145Z,91.80
2022-07-27T07:44:27.774Z,89.90
2022-07-27T07:49:37.865Z,85.30
2022-07-27T07:54:40.338Z,84.30
2022-07-27T07:59:47.026Z,91.00
2022-07-27T08:04:52.946Z,89.20
2022-07-27T08:09:58.387Z,88.20
2022-07-27T08:15:04.327Z,90.90
2022-07-27T08:20:10.359Z,91.10
2022-07-27T08:25:17.536Z,91.90
2022-07-27T08:30:23.086Z,88.40
2022-07-27T08:35:30.230Z,85.10
2022-07-27T08:40:45.967Z,80.50
2022-07-27T08:45:45.086Z,79.50
2022-07-27T08:50:51.956Z,79.10
2022-07-27T08:55:58.076Z,73.00
2022-07-27T09:01:04.330Z,68.90
2022-07-27T09:06:09.728Z,67.50
2022-07-27T09:11:16.527Z,64.00
2022-07-27T09:16:24.894Z,62.80
2022-07-27T09:21:30.520Z,59.00
2022-07-27T09:26:36.406Z,60.00
2022-07-27T09:31:50.643Z,60.40
2022-07-27T09:36:58.760Z,62.60
2022-07-27T09:42:04.124Z,59.50
2022-07-27T09:47:25.776Z,58.10
2022-07-27T09:52:32.780Z,58.70
2022-07-27T09:57:55.815Z,57.00
2022-07-27T10:03:02.990Z,58.90
2022-07-27T10:08:09.137Z,58.70
2022-07-27T10:13:14.549Z,54.20
2022-07-27T10:18:45.109Z,54.80
2022-07-27T10:24:04.332Z,52.00
2022-07-27T10:29:21.092Z,52.10
2022-07-27T10:34:44.077Z,49.50
2022-07-27T10:40:13.100Z,47.60
2022-07-27T10:45:20.222Z,50.10
2022-07-27T10:50:30.163Z,47.60
2022-07-27T10:55:38.501Z,48.40
2022-07-27T11:00:55.871Z,51.20
2022-07-27T11:06:55.490Z,45.50
2022-07-27T11:11:42.703Z,46.80
2022-07-27T11:16:55.490Z,44.70
2022-07-27T11:21:57.880Z,46.20
2022-07-27T11:27:17.163Z,44.80
2022-07-27T11:32:14.507Z,45.70
2022-07-27T11:37:23.887Z,45.70
2022-07-27T11:42:40.608Z,44.20
2022-07-27T11:47:48.218Z,42.70
2022-07-27T11:53:02.027Z,42.30
2022-07-27T11:58:07.996Z,41.80
2022-07-27T12:03:45.755Z,43.40
2022-07-27T12:08:32.530Z,43.70
2022-07-27T12:13:37.889Z,41.30
2022-07-27T12:18:44.899Z,43.70
2022-07-27T12:23:55.655Z,44.00
2022-07-27T12:29:09.606Z,44.50
2022-07-27T12:34:16.394Z,41.00
2022-07-27T12:39:32.397Z,40.30
2022-07-27T12:44:58.434Z,42.20
2022-07-27T12:50:13.018Z,40.60
2022-07-27T12:55:20.327Z,41.70
2022-07-27T13:00:33.229Z,42.00
2022-07-27T13:05:36.947Z,42.10
2022-07-27T13:10:42.718Z,40.90
2022-07-27T13:15:48.082Z,40.90
2022-07-27T13:20:53.796Z,41.30
2022-07-27T13:25:59.689Z,42.00
2022-07-27T13:31:05.313Z,42.20
2022-07-27T13:36:10.737Z,43.40
2022-07-27T13:41:16.092Z,41.90
2022-07-27T13:46:22.005Z,42.80
2022-07-27T13:51:27.488Z,42.10
2022-07-27T13:56:33.532Z,42.50
2022-07-27T14:01:40.465Z,42.50
2022-07-27T14:06:47.945Z,42.80
2022-07-27T14:11:53.373Z,41.90
2022-07-27T14:16:58.743Z,42.40
2022-07-27T14:22:04.698Z,43.20
2022-07-27T14:27:10.119Z,41.50
2022-07-27T14:32:15.506Z,43.00
2022-07-27T14:37:22.869Z,42.30
2022-07-27T14:42:28.954Z,44.70
2022-07-27T14:47:34.415Z,44.30
2022-07-27T14:52:39.735Z,44.40
2022-07-27T14:57:46.740Z,45.50
2022-07-27T15:02:53.273Z,46.10
2022-07-27T15:07:58.722Z,45.40
2022-07-27T15:13:05.671Z,43.80
2022-07-27T15:18:11.178Z,44.50
2022-07-27T15:23:17.590Z,44.40
2022-07-27T15:28:23.040Z,43.40
2022-07-27T15:33:28.376Z,46.40
2022-07-27T15:38:33.810Z,45.30
2022-07-27T15:43:42.745Z,46.00
2022-07-27T15:48:49.870Z,48.10
2022-07-27T15:53:56.925Z,47.90
2022-07-27T15:59:02.394Z,46.20
2022-07-27T16:04:08.105Z,45.90
2022-07-27T16:09:14.487Z,47.30
2022-07-27T16:14:20.594Z,48.30
2022-07-27T16:19:25.944Z,48.20
2022-07-27T16:24:33.995Z,48.20
2022-07-27T16:29:38.156Z,48.40
2022-07-27T16:34:43.580Z,48.80
2022-07-27T16:39:48.954Z,49.10
2022-07-27T16:44:54.269Z,50.00
2022-07-27T16:49:59.698Z,51.20
2022-07-27T16:55:05.530Z,51.60
2022-07-27T17:00:12.329Z,52.40
2022-07-27T17:05:17.757Z,53.60
2022-07-27T17:10:26.630Z,54.10
2022-07-27T17:15:30.322Z,54.40
2022-07-27T17:20:37.978Z,54.50
2022-07-27T17:25:43.321Z,55.30
2022-07-27T17:30:48.809Z,55.50
2022-07-27T17:35:54.200Z,55.80
2022-07-27T17:40:59.567Z,57.00
2022-07-27T17:46:04.965Z,57.70
2022-07-27T17:51:10.795Z,57.80
2022-07-27T17:56:16.243Z,58.90
2022-07-27T18:01:21.659Z,58.80
2022-07-27T18:06:28.698Z,59.20
2022-07-27T18:11:34.117Z,59.40
2022-07-27T18:16:41.023Z,60.00
2022-07-27T18:21:46.613Z,61.10
2022-07-27T18:26:53.247Z,62.00
2022-07-27T18:31:59.035Z,62.50
2022-07-27T18:37:04.554Z,62.60
2022-07-27T18:42:10.084Z,62.60
2022-07-27T18:47:15.436Z,63.50
2022-07-27T18:52:20.969Z,63.90
2022-07-27T18:57:26.420Z,63.50
2022-07-27T19:02:38.765Z,64.10
2022-07-27T19:07:40.925Z,64.60
2022-07-27T19:12:46.363Z,66.40
2022-07-27T19:17:52.762Z,67.50
2022-07-27T19:22:58.142Z,69.10
2022-07-27T19:28:04.551Z,74.00
2022-07-27T19:33:09.887Z,78.70
2022-07-27T19:38:15.263Z,84.40
2022-07-27T19:43:21.009Z,90.00
2022-07-27T19:48:28.129Z,92.80
2022-07-27T19:53:35.137Z,95.90
2022-07-27T19:58:40.645Z,99.10
2022-07-27T20:03:50.023Z,99.90
2022-07-27T20:08:54.642Z,99.90
2022-07-27T20:14:02.587Z,99.90
2022-07-27T20:19:07.968Z,99.90
2022-07-27T20:24:14.280Z,99.90
2022-07-27T20:29:19.616Z,99.90
2022-07-27T20:34:25.993Z,99.90
2022-07-27T20:39:31.419Z,99.90
2022-07-27T20:44:36.791Z,99.90
2022-07-27T20:49:42.100Z,99.90
2022-07-27T20:54:47.500Z,99.90
2022-07-27T20:59:52.873Z,99.90
2022-07-27T21:04:59.589Z,99.90
2022-07-27T21:10:06.318Z,99.90
2022-07-27T21:15:13.645Z,99.90
2022-07-27T21:20:19.612Z,99.90
2022-07-27T21:25:24.976Z,99.90
2022-07-27T21:30:33.360Z,99.90
2022-07-27T21:35:38.684Z,99.90
2022-07-27T21:40:44.130Z,99.90
2022-07-27T21:45:49.843Z,99.90
2022-07-27T21:50:55.582Z,99.90
2022-07-27T21:56:00.979Z,99.90
2022-07-27T22:01:09.208Z,99.90
2022-07-27T22:06:16.242Z,99.90
2022-07-27T22:11:21.639Z,99.90
2022-07-27T22:16:27.095Z,99.90
2022-07-27T22:21:32.739Z,99.90
2022-07-27T22:26:38.082Z,99.90
2022-07-27T22:31:43.712Z,99.90
2022-07-27T22:36:49.108Z,99.90
2022-07-27T22:41:54.546Z,99.90
2022-07-27T22:46:59.899Z,99.90
2022-07-27T22:52:08.521Z,99.90
2022-07-27T22:57:13.827Z,99.90
2022-07-27T23:02:19.767Z,99.90
2022-07-27T23:07:25.094Z,99.90
2022-07-27T23:12:30.527Z,99.90
2022-07-27T23:17:36.154Z,99.90
2022-07-27T23:22:42.509Z,99.90
2022-07-27T23:27:49.650Z,99.90
2022-07-27T23:32:56.778Z,99.90
2022-07-27T23:38:02.128Z,99.90
2022-07-27T23:43:07.553Z,99.90
2022-07-27T23:48:12.949Z,99.90
2022-07-27T23:53:18.400Z,99.90
2022-07-27T23:58:24.200Z,99.90
